sensor_id;sensor_type;location;lat;lon;timestamp;noise_LAeq;noise_LA_min;noise_LA_max;noise_LA01;noise_LA95
38366;Laerm;943;51.568;6.998;2022-12-18T00:02:05;44.51;38.38;50.20;;
38366;Laerm;943;51.568;6.998;2022-12-18T00:04:32;44.49;38.02;49.58;;
38366;Laerm;943;51.568;6.998;2022-12-18T00:07:01;43.67;38.90;50.07;;
38366;Laerm;943;51.568;6.998;2022-12-18T00:09:30;42.44;37.54;48.05;;
38366;Laerm;943;51.568;6.998;2022-12-18T00:12:07;41.96;36.68;51.63;;
38366;Laerm;943;51.568;6.998;2022-12-18T00:14:45;42.71;36.14;51.78;;
38366;Laerm;943;51.568;6.998;2022-12-18T00:17:12;46.39;36.22;75.48;;
38366;Laerm;943;51.568;6.998;2022-12-18T00:19:40;42.02;36.45;50.42;;
38366;Laerm;943;51.568;6.998;2022-12-18T00:22:08;43.30;36.56;49.20;;
38366;Laerm;943;51.568;6.998;2022-12-18T00:24:35;42.09;36.34;48.99;;
38366;Laerm;943;51.568;6.998;2022-12-18T00:27:03;42.22;36.74;60.97;;
38366;Laerm;943;51.568;6.998;2022-12-18T00:29:31;42.30;36.71;52.43;;
38366;Laerm;943;51.568;6.998;2022-12-18T00:31:58;41.56;35.42;53.91;;
38366;Laerm;943;51.568;6.998;2022-12-18T00:34:26;42.18;35.38;53.29;;
38366;Laerm;943;51.568;6.998;2022-12-18T00:36:54;39.80;33.83;48.51;;
38366;Laerm;943;51.568;6.998;2022-12-18T00:39:22;41.53;36.04;47.04;;
38366;Laerm;943;51.568;6.998;2022-12-18T00:41:50;41.17;35.81;51.51;;
38366;Laerm;943;51.568;6.998;2022-12-18T00:44:37;41.50;35.26;54.17;;
38366;Laerm;943;51.568;6.998;2022-12-18T00:47:05;40.96;36.09;55.09;;
38366;Laerm;943;51.568;6.998;2022-12-18T00:49:37;41.27;35.11;49.44;;
38366;Laerm;943;51.568;6.998;2022-12-18T00:52:08;41.25;35.44;52.23;;
38366;Laerm;943;51.568;6.998;2022-12-18T00:54:35;42.58;38.02;64.10;;
38366;Laerm;943;51.568;6.998;2022-12-18T00:57:03;42.26;35.46;53.45;;
38366;Laerm;943;51.568;6.998;2022-12-18T00:59:37;42.65;36.24;53.86;;
38366;Laerm;943;51.568;6.998;2022-12-18T01:02:07;42.89;36.54;52.11;;
38366;Laerm;943;51.568;6.998;2022-12-18T01:04:35;44.01;36.30;53.19;;
38366;Laerm;943;51.568;6.998;2022-12-18T01:07:03;41.73;36.11;48.10;;
38366;Laerm;943;51.568;6.998;2022-12-18T01:09:32;41.41;36.10;55.85;;
38366;Laerm;943;51.568;6.998;2022-12-18T01:12:00;43.40;35.89;53.18;;
38366;Laerm;943;51.568;6.998;2022-12-18T01:14:30;41.33;36.46;51.59;;
38366;Laerm;943;51.568;6.998;2022-12-18T01:16:58;41.78;35.71;51.64;;
38366;Laerm;943;51.568;6.998;2022-12-18T01:19:26;41.89;35.79;50.84;;
38366;Laerm;943;51.568;6.998;2022-12-18T01:21:54;42.26;35.82;50.98;;
38366;Laerm;943;51.568;6.998;2022-12-18T01:24:22;41.80;35.59;54.41;;
38366;Laerm;943;51.568;6.998;2022-12-18T01:26:49;43.80;37.80;53.53;;
38366;Laerm;943;51.568;6.998;2022-12-18T01:29:17;41.87;36.48;52.95;;
38366;Laerm;943;51.568;6.998;2022-12-18T01:31:45;43.90;37.02;51.97;;
38366;Laerm;943;51.568;6.998;2022-12-18T01:34:13;42.74;34.85;51.85;;
38366;Laerm;943;51.568;6.998;2022-12-18T01:36:43;44.13;35.31;58.48;;
38366;Laerm;943;51.568;6.998;2022-12-18T01:39:14;43.59;35.81;58.29;;
38366;Laerm;943;51.568;6.998;2022-12-18T01:41:42;43.22;36.12;54.02;;
38366;Laerm;943;51.568;6.998;2022-12-18T01:48:07;42.22;34.97;56.21;;
38366;Laerm;943;51.568;6.998;2022-12-18T01:50:41;40.45;35.26;48.24;;
38366;Laerm;943;51.568;6.998;2022-12-18T01:53:22;40.21;33.53;52.67;;
38366;Laerm;943;51.568;6.998;2022-12-18T01:55:58;40.87;35.92;49.59;;
38366;Laerm;943;51.568;6.998;2022-12-18T01:59:03;40.85;34.71;51.83;;
38366;Laerm;943;51.568;6.998;2022-12-18T02:01:33;41.98;35.20;53.15;;
38366;Laerm;943;51.568;6.998;2022-12-18T02:04:27;42.49;35.28;55.21;;
38366;Laerm;943;51.568;6.998;2022-12-18T02:07:45;40.28;35.41;46.81;;
38366;Laerm;943;51.568;6.998;2022-12-18T02:13:55;42.05;35.19;50.45;;
38366;Laerm;943;51.568;6.998;2022-12-18T02:16:52;40.60;34.30;49.37;;
38366;Laerm;943;51.568;6.998;2022-12-18T02:23:26;42.82;36.06;50.64;;
38366;Laerm;943;51.568;6.998;2022-12-18T02:26:28;43.58;38.29;49.64;;
38366;Laerm;943;51.568;6.998;2022-12-18T02:29:57;41.60;36.66;54.66;;
38366;Laerm;943;51.568;6.998;2022-12-18T02:32:48;39.98;35.47;51.14;;
38366;Laerm;943;51.568;6.998;2022-12-18T02:35:29;43.56;36.38;52.59;;
38366;Laerm;943;51.568;6.998;2022-12-18T02:38:01;41.92;36.92;49.60;;
38366;Laerm;943;51.568;6.998;2022-12-18T02:40:34;39.70;35.06;46.71;;
38366;Laerm;943;51.568;6.998;2022-12-18T02:43:12;40.83;35.28;55.36;;
38366;Laerm;943;51.568;6.998;2022-12-18T02:45:59;41.15;36.22;48.90;;
38366;Laerm;943;51.568;6.998;2022-12-18T02:48:34;41.75;35.00;53.25;;
38366;Laerm;943;51.568;6.998;2022-12-18T02:51:39;40.75;35.20;53.62;;
38366;Laerm;943;51.568;6.998;2022-12-18T02:58:20;41.68;34.54;55.25;;
38366;Laerm;943;51.568;6.998;2022-12-18T03:04:51;42.94;35.27;52.78;;
38366;Laerm;943;51.568;6.998;2022-12-18T03:07:53;41.85;36.47;52.85;;
38366;Laerm;943;51.568;6.998;2022-12-18T03:10:35;40.68;35.97;48.67;;
38366;Laerm;943;51.568;6.998;2022-12-18T03:13:21;41.87;35.79;49.83;;
38366;Laerm;943;51.568;6.998;2022-12-18T03:15:57;42.82;36.29;53.56;;
38366;Laerm;943;51.568;6.998;2022-12-18T03:18:46;41.67;35.49;51.27;;
38366;Laerm;943;51.568;6.998;2022-12-18T03:21:27;42.72;36.71;52.73;;
38366;Laerm;943;51.568;6.998;2022-12-18T03:24:00;42.42;36.45;54.83;;
38366;Laerm;943;51.568;6.998;2022-12-18T03:26:32;44.23;38.58;57.18;;
38366;Laerm;943;51.568;6.998;2022-12-18T03:29:26;42.43;33.52;57.52;;
38366;Laerm;943;51.568;6.998;2022-12-18T03:32:10;44.40;35.34;62.18;;
38366;Laerm;943;51.568;6.998;2022-12-18T03:34:42;40.71;35.48;47.64;;
38366;Laerm;943;51.568;6.998;2022-12-18T03:37:13;41.38;35.14;53.37;;
38366;Laerm;943;51.568;6.998;2022-12-18T03:39:45;41.02;35.49;50.79;;
38366;Laerm;943;51.568;6.998;2022-12-18T03:42:52;41.41;34.38;48.89;;
38366;Laerm;943;51.568;6.998;2022-12-18T03:45:38;43.02;35.15;50.12;;
38366;Laerm;943;51.568;6.998;2022-12-18T03:48:38;41.35;34.63;48.14;;
38366;Laerm;943;51.568;6.998;2022-12-18T03:51:54;40.75;35.70;46.78;;
38366;Laerm;943;51.568;6.998;2022-12-18T03:54:28;41.68;36.02;53.17;;
38366;Laerm;943;51.568;6.998;2022-12-18T03:57:26;43.31;37.58;54.80;;
38366;Laerm;943;51.568;6.998;2022-12-18T04:00:15;42.12;36.20;51.14;;
38366;Laerm;943;51.568;6.998;2022-12-18T04:03:03;42.82;36.44;53.27;;
38366;Laerm;943;51.568;6.998;2022-12-18T04:05:43;44.25;39.27;56.40;;
38366;Laerm;943;51.568;6.998;2022-12-18T04:08:13;41.82;36.37;48.71;;
38366;Laerm;943;51.568;6.998;2022-12-18T04:10:48;43.07;36.92;47.91;;
38366;Laerm;943;51.568;6.998;2022-12-18T04:13:34;42.61;37.59;50.46;;
38366;Laerm;943;51.568;6.998;2022-12-18T04:16:08;43.38;35.93;55.18;;
38366;Laerm;943;51.568;6.998;2022-12-18T04:18:40;40.86;35.98;49.04;;
38366;Laerm;943;51.568;6.998;2022-12-18T04:21:09;41.60;35.98;49.59;;
38366;Laerm;943;51.568;6.998;2022-12-18T04:23:38;42.85;37.65;52.51;;
38366;Laerm;943;51.568;6.998;2022-12-18T04:26:07;43.14;37.36;51.03;;
38366;Laerm;943;51.568;6.998;2022-12-18T04:28:53;42.73;36.13;51.37;;
38366;Laerm;943;51.568;6.998;2022-12-18T04:31:21;42.05;36.84;51.70;;
38366;Laerm;943;51.568;6.998;2022-12-18T04:33:49;43.01;37.94;59.75;;
38366;Laerm;943;51.568;6.998;2022-12-18T04:36:17;42.07;35.39;52.26;;
38366;Laerm;943;51.568;6.998;2022-12-18T04:38:46;43.23;36.45;53.93;;
38366;Laerm;943;51.568;6.998;2022-12-18T04:41:16;43.98;36.93;51.98;;
38366;Laerm;943;51.568;6.998;2022-12-18T04:43:46;44.09;36.43;57.33;;
38366;Laerm;943;51.568;6.998;2022-12-18T04:46:14;42.91;37.71;50.76;;
38366;Laerm;943;51.568;6.998;2022-12-18T04:48:45;43.82;37.82;52.48;;
38366;Laerm;943;51.568;6.998;2022-12-18T04:51:13;43.28;37.71;49.97;;
38366;Laerm;943;51.568;6.998;2022-12-18T04:53:41;43.74;36.54;55.69;;
38366;Laerm;943;51.568;6.998;2022-12-18T04:56:15;42.53;37.06;48.29;;
38366;Laerm;943;51.568;6.998;2022-12-18T04:58:44;40.64;36.03;48.52;;
38366;Laerm;943;51.568;6.998;2022-12-18T05:01:17;42.79;35.86;50.20;;
38366;Laerm;943;51.568;6.998;2022-12-18T05:03:45;41.95;36.58;49.24;;
38366;Laerm;943;51.568;6.998;2022-12-18T05:06:13;42.19;36.78;47.81;;
38366;Laerm;943;51.568;6.998;2022-12-18T05:08:44;43.42;38.79;52.24;;
38366;Laerm;943;51.568;6.998;2022-12-18T05:11:15;44.81;36.57;63.67;;
38366;Laerm;943;51.568;6.998;2022-12-18T05:13:46;41.37;35.94;48.69;;
38366;Laerm;943;51.568;6.998;2022-12-18T05:16:15;42.53;35.50;50.76;;
38366;Laerm;943;51.568;6.998;2022-12-18T05:18:43;42.26;35.51;52.15;;
38366;Laerm;943;51.568;6.998;2022-12-18T05:21:11;44.12;35.97;60.75;;
38366;Laerm;943;51.568;6.998;2022-12-18T05:23:39;43.99;36.43;53.93;;
38366;Laerm;943;51.568;6.998;2022-12-18T05:26:08;42.63;37.75;53.89;;
38366;Laerm;943;51.568;6.998;2022-12-18T05:28:36;42.25;35.79;52.05;;
38366;Laerm;943;51.568;6.998;2022-12-18T05:31:05;42.18;36.11;54.83;;
38366;Laerm;943;51.568;6.998;2022-12-18T05:33:35;41.72;36.02;52.23;;
38366;Laerm;943;51.568;6.998;2022-12-18T05:36:09;43.75;37.29;52.50;;
38366;Laerm;943;51.568;6.998;2022-12-18T05:38:39;43.18;37.48;53.66;;
38366;Laerm;943;51.568;6.998;2022-12-18T05:41:08;42.69;36.11;52.00;;
38366;Laerm;943;51.568;6.998;2022-12-18T05:43:40;40.91;36.47;48.72;;
38366;Laerm;943;51.568;6.998;2022-12-18T05:46:16;41.77;35.68;51.69;;
38366;Laerm;943;51.568;6.998;2022-12-18T05:48:46;41.95;35.79;50.48;;
38366;Laerm;943;51.568;6.998;2022-12-18T05:51:20;40.16;34.58;49.77;;
38366;Laerm;943;51.568;6.998;2022-12-18T05:53:49;42.03;37.21;49.86;;
38366;Laerm;943;51.568;6.998;2022-12-18T05:56:22;41.20;35.70;47.05;;
38366;Laerm;943;51.568;6.998;2022-12-18T05:58:54;42.86;36.64;52.06;;
38366;Laerm;943;51.568;6.998;2022-12-18T06:01:26;40.26;35.71;56.00;;
38366;Laerm;943;51.568;6.998;2022-12-18T06:03:55;42.41;37.70;48.99;;
38366;Laerm;943;51.568;6.998;2022-12-18T06:06:27;42.15;36.49;49.42;;
38366;Laerm;943;51.568;6.998;2022-12-18T06:08:57;42.30;36.31;49.80;;
38366;Laerm;943;51.568;6.998;2022-12-18T06:11:27;40.08;35.53;47.99;;
38366;Laerm;943;51.568;6.998;2022-12-18T06:13:56;40.33;36.28;46.62;;
38366;Laerm;943;51.568;6.998;2022-12-18T06:16:29;42.86;36.84;52.15;;
38366;Laerm;943;51.568;6.998;2022-12-18T06:19:00;41.82;35.62;50.63;;
38366;Laerm;943;51.568;6.998;2022-12-18T06:21:29;42.37;36.20;52.93;;
38366;Laerm;943;51.568;6.998;2022-12-18T06:23:59;41.89;36.10;54.17;;
38366;Laerm;943;51.568;6.998;2022-12-18T06:26:27;42.18;37.97;48.44;;
38366;Laerm;943;51.568;6.998;2022-12-18T06:28:55;43.14;37.75;52.08;;
38366;Laerm;943;51.568;6.998;2022-12-18T06:31:24;42.77;37.36;59.69;;
38366;Laerm;943;51.568;6.998;2022-12-18T06:33:52;42.65;38.69;55.09;;
38366;Laerm;943;51.568;6.998;2022-12-18T06:36:20;42.68;36.74;50.17;;
38366;Laerm;943;51.568;6.998;2022-12-18T06:38:49;42.81;37.36;50.47;;
38366;Laerm;943;51.568;6.998;2022-12-18T06:41:21;42.58;37.70;51.08;;
38366;Laerm;943;51.568;6.998;2022-12-18T06:43:50;43.61;37.36;49.97;;
38366;Laerm;943;51.568;6.998;2022-12-18T06:46:21;45.39;38.76;57.63;;
38366;Laerm;943;51.568;6.998;2022-12-18T06:48:50;43.55;38.11;50.53;;
38366;Laerm;943;51.568;6.998;2022-12-18T06:51:22;44.21;37.24;58.69;;
38366;Laerm;943;51.568;6.998;2022-12-18T06:53:50;41.15;36.99;47.88;;
38366;Laerm;943;51.568;6.998;2022-12-18T06:56:18;43.40;38.38;50.68;;
38366;Laerm;943;51.568;6.998;2022-12-18T06:58:46;41.59;36.43;53.24;;
38366;Laerm;943;51.568;6.998;2022-12-18T07:01:14;44.07;39.00;62.41;;
38366;Laerm;943;51.568;6.998;2022-12-18T07:03:42;43.88;37.64;60.42;;
38366;Laerm;943;51.568;6.998;2022-12-18T07:06:19;43.57;37.49;61.80;;
38366;Laerm;943;51.568;6.998;2022-12-18T07:08:50;41.92;35.68;67.00;;
38366;Laerm;943;51.568;6.998;2022-12-18T07:11:19;45.64;35.23;60.50;;
38366;Laerm;943;51.568;6.998;2022-12-18T07:13:47;43.86;38.53;58.19;;
38366;Laerm;943;51.568;6.998;2022-12-18T07:16:19;44.94;37.53;67.57;;
38366;Laerm;943;51.568;6.998;2022-12-18T07:18:54;41.67;37.83;51.34;;
38366;Laerm;943;51.568;6.998;2022-12-18T07:21:24;55.64;38.65;77.06;;
38366;Laerm;943;51.568;6.998;2022-12-18T07:23:52;42.30;36.82;60.58;;
38366;Laerm;943;51.568;6.998;2022-12-18T07:26:22;45.00;37.15;62.72;;
38366;Laerm;943;51.568;6.998;2022-12-18T07:28:54;44.71;37.62;62.15;;
38366;Laerm;943;51.568;6.998;2022-12-18T07:31:23;41.34;35.33;47.78;;
38366;Laerm;943;51.568;6.998;2022-12-18T07:33:52;43.26;38.51;54.60;;
38366;Laerm;943;51.568;6.998;2022-12-18T07:36:21;47.36;40.42;57.97;;
38366;Laerm;943;51.568;6.998;2022-12-18T07:38:50;44.09;38.18;58.31;;
38366;Laerm;943;51.568;6.998;2022-12-18T07:41:20;43.36;38.11;52.95;;
38366;Laerm;943;51.568;6.998;2022-12-18T07:43:48;43.46;38.67;51.24;;
38366;Laerm;943;51.568;6.998;2022-12-18T07:46:19;42.33;37.37;53.52;;
38366;Laerm;943;51.568;6.998;2022-12-18T07:48:47;43.81;38.14;54.83;;
38366;Laerm;943;51.568;6.998;2022-12-18T07:51:18;43.88;38.92;57.70;;
38366;Laerm;943;51.568;6.998;2022-12-18T07:53:47;45.12;38.44;63.40;;
38366;Laerm;943;51.568;6.998;2022-12-18T07:56:20;44.07;39.29;62.51;;
38366;Laerm;943;51.568;6.998;2022-12-18T07:58:55;44.91;39.67;57.03;;
38366;Laerm;943;51.568;6.998;2022-12-18T08:01:24;45.16;41.20;61.09;;
38366;Laerm;943;51.568;6.998;2022-12-18T08:03:52;45.37;41.43;50.06;;
38366;Laerm;943;51.568;6.998;2022-12-18T08:06:21;45.59;41.42;51.89;;
38366;Laerm;943;51.568;6.998;2022-12-18T08:08:56;44.99;40.83;59.28;;
38366;Laerm;943;51.568;6.998;2022-12-18T08:11:28;44.26;39.32;54.63;;
38366;Laerm;943;51.568;6.998;2022-12-18T08:13:57;45.06;40.83;64.34;;
38366;Laerm;943;51.568;6.998;2022-12-18T08:16:26;44.59;39.55;52.28;;
38366;Laerm;943;51.568;6.998;2022-12-18T08:18:54;46.27;40.67;55.65;;
38366;Laerm;943;51.568;6.998;2022-12-18T08:21:28;45.51;41.31;49.72;;
38366;Laerm;943;51.568;6.998;2022-12-18T08:24:01;46.02;41.61;54.10;;
38366;Laerm;943;51.568;6.998;2022-12-18T08:26:31;43.50;38.66;52.41;;
38366;Laerm;943;51.568;6.998;2022-12-18T08:29:00;43.88;39.38;58.59;;
38366;Laerm;943;51.568;6.998;2022-12-18T08:31:30;44.97;41.04;54.03;;
38366;Laerm;943;51.568;6.998;2022-12-18T08:33:58;44.43;39.68;52.62;;
38366;Laerm;943;51.568;6.998;2022-12-18T08:36:27;45.18;40.15;60.65;;
38366;Laerm;943;51.568;6.998;2022-12-18T08:38:57;44.17;39.71;52.47;;
38366;Laerm;943;51.568;6.998;2022-12-18T08:41:25;45.43;38.65;54.32;;
38366;Laerm;943;51.568;6.998;2022-12-18T08:43:57;44.69;40.71;57.80;;
38366;Laerm;943;51.568;6.998;2022-12-18T08:46:51;44.26;39.62;54.51;;
38366;Laerm;943;51.568;6.998;2022-12-18T08:49:18;45.40;40.66;57.55;;
38366;Laerm;943;51.568;6.998;2022-12-18T08:51:46;46.78;40.76;59.67;;
38366;Laerm;943;51.568;6.998;2022-12-18T08:54:14;44.17;40.08;63.67;;
38366;Laerm;943;51.568;6.998;2022-12-18T08:56:41;45.10;39.80;55.04;;
38366;Laerm;943;51.568;6.998;2022-12-18T08:59:09;43.64;39.37;49.35;;
38366;Laerm;943;51.568;6.998;2022-12-18T09:01:47;48.60;40.26;59.77;;
38366;Laerm;943;51.568;6.998;2022-12-18T09:04:15;44.15;39.99;61.27;;
38366;Laerm;943;51.568;6.998;2022-12-18T09:06:43;42.90;39.32;55.16;;
38366;Laerm;943;51.568;6.998;2022-12-18T09:09:11;44.90;40.26;51.86;;
38366;Laerm;943;51.568;6.998;2022-12-18T09:11:39;43.54;39.59;61.97;;
38366;Laerm;943;51.568;6.998;2022-12-18T09:14:08;43.68;39.40;51.02;;
38366;Laerm;943;51.568;6.998;2022-12-18T09:16:37;47.07;39.35;59.60;;
38366;Laerm;943;51.568;6.998;2022-12-18T09:19:05;47.93;40.22;59.03;;
38366;Laerm;943;51.568;6.998;2022-12-18T09:21:35;50.07;47.88;53.48;;
38366;Laerm;943;51.568;6.998;2022-12-18T09:24:05;53.45;48.17;80.19;;
38366;Laerm;943;51.568;6.998;2022-12-18T09:26:35;50.02;47.86;55.15;;
38366;Laerm;943;51.568;6.998;2022-12-18T09:29:05;49.87;47.60;61.23;;
38366;Laerm;943;51.568;6.998;2022-12-18T09:31:35;49.20;43.52;56.22;;
38366;Laerm;943;51.568;6.998;2022-12-18T09:34:03;49.48;40.56;76.14;;
38366;Laerm;943;51.568;6.998;2022-12-18T09:36:31;43.12;38.12;52.92;;
38366;Laerm;943;51.568;6.998;2022-12-18T09:38:59;42.51;38.59;49.54;;
38366;Laerm;943;51.568;6.998;2022-12-18T09:41:57;43.42;39.31;54.60;;
38366;Laerm;943;51.568;6.998;2022-12-18T09:44:45;45.49;40.15;58.58;;
38366;Laerm;943;51.568;6.998;2022-12-18T09:47:34;46.22;40.27;60.30;;
38366;Laerm;943;51.568;6.998;2022-12-18T09:50:36;45.11;40.28;71.10;;
38366;Laerm;943;51.568;6.998;2022-12-18T09:53:21;44.44;39.82;56.53;;
38366;Laerm;943;51.568;6.998;2022-12-18T09:55:56;43.22;39.48;53.32;;
38366;Laerm;943;51.568;6.998;2022-12-18T09:58:52;44.72;40.87;52.66;;
38366;Laerm;943;51.568;6.998;2022-12-18T10:01:24;44.81;40.80;60.21;;
38366;Laerm;943;51.568;6.998;2022-12-18T10:04:08;46.18;40.37;56.79;;
38366;Laerm;943;51.568;6.998;2022-12-18T10:07:29;44.59;39.54;60.36;;
38366;Laerm;943;51.568;6.998;2022-12-18T10:13:38;44.93;40.14;55.07;;
38366;Laerm;943;51.568;6.998;2022-12-18T10:20:05;43.79;39.87;53.32;;
38366;Laerm;943;51.568;6.998;2022-12-18T10:28:17;43.52;39.69;59.93;;
38366;Laerm;943;51.568;6.998;2022-12-18T10:30:47;43.83;39.95;57.08;;
38366;Laerm;943;51.568;6.998;2022-12-18T10:33:23;44.44;39.94;56.10;;
38366;Laerm;943;51.568;6.998;2022-12-18T10:35:52;48.08;40.78;63.99;;
38366;Laerm;943;51.568;6.998;2022-12-18T10:38:32;45.43;41.57;62.68;;
38366;Laerm;943;51.568;6.998;2022-12-18T10:44:22;45.37;41.30;62.12;;
38366;Laerm;943;51.568;6.998;2022-12-18T10:47:06;48.76;41.72;60.65;;
38366;Laerm;943;51.568;6.998;2022-12-18T10:49:52;44.80;40.61;56.64;;
38366;Laerm;943;51.568;6.998;2022-12-18T10:52:27;46.06;40.96;54.49;;
38366;Laerm;943;51.568;6.998;2022-12-18T10:55:03;43.90;40.58;63.73;;
38366;Laerm;943;51.568;6.998;2022-12-18T10:57:40;46.59;40.81;63.15;;
38366;Laerm;943;51.568;6.998;2022-12-18T11:00:24;45.22;41.00;61.22;;
38366;Laerm;943;51.568;6.998;2022-12-18T11:02:54;44.98;40.69;57.68;;
38366;Laerm;943;51.568;6.998;2022-12-18T11:05:32;44.40;40.05;54.89;;
38366;Laerm;943;51.568;6.998;2022-12-18T11:08:02;44.41;40.53;55.38;;
38366;Laerm;943;51.568;6.998;2022-12-18T11:10:38;43.94;40.49;51.64;;
38366;Laerm;943;51.568;6.998;2022-12-18T11:13:21;47.85;41.69;57.47;;
38366;Laerm;943;51.568;6.998;2022-12-18T11:15:50;44.24;40.72;60.81;;
38366;Laerm;943;51.568;6.998;2022-12-18T11:18:38;44.32;40.57;54.50;;
38366;Laerm;943;51.568;6.998;2022-12-18T11:21:11;44.24;40.92;49.59;;
38366;Laerm;943;51.568;6.998;2022-12-18T11:23:54;44.04;39.87;55.64;;
38366;Laerm;943;51.568;6.998;2022-12-18T11:26:35;44.99;40.16;55.49;;
38366;Laerm;943;51.568;6.998;2022-12-18T11:29:22;44.92;41.57;53.35;;
38366;Laerm;943;51.568;6.998;2022-12-18T11:31:51;43.82;40.70;53.48;;
38366;Laerm;943;51.568;6.998;2022-12-18T11:34:31;43.59;40.35;57.44;;
38366;Laerm;943;51.568;6.998;2022-12-18T11:37:03;44.76;41.05;49.99;;
38366;Laerm;943;51.568;6.998;2022-12-18T11:40:13;44.19;40.24;61.30;;
38366;Laerm;943;51.568;6.998;2022-12-18T11:43:45;44.01;40.35;56.96;;
38366;Laerm;943;51.568;6.998;2022-12-18T11:46:07;49.94;40.20;61.39;;
38366;Laerm;943;51.568;6.998;2022-12-18T11:49:11;46.31;41.06;60.69;;
38366;Laerm;943;51.568;6.998;2022-12-18T11:58:46;46.43;41.35;62.57;;
38366;Laerm;943;51.568;6.998;2022-12-18T12:08:06;46.48;41.51;65.47;;
38366;Laerm;943;51.568;6.998;2022-12-18T12:11:02;45.05;40.74;59.42;;
38366;Laerm;943;51.568;6.998;2022-12-18T12:14:28;45.82;41.10;61.43;;
38366;Laerm;943;51.568;6.998;2022-12-18T12:21:28;49.40;41.03;74.60;;
38366;Laerm;943;51.568;6.998;2022-12-18T12:27:51;44.78;41.25;52.78;;
38366;Laerm;943;51.568;6.998;2022-12-18T12:34:34;45.97;40.16;64.62;;
38366;Laerm;943;51.568;6.998;2022-12-18T12:40:19;44.33;40.38;56.61;;
38366;Laerm;943;51.568;6.998;2022-12-18T12:43:47;52.45;39.56;78.81;;
38366;Laerm;943;51.568;6.998;2022-12-18T12:46:21;45.69;40.32;60.39;;
38366;Laerm;943;51.568;6.998;2022-12-18T12:48:59;48.03;40.79;64.32;;
38366;Laerm;943;51.568;6.998;2022-12-18T12:51:39;44.51;40.88;50.76;;
38366;Laerm;943;51.568;6.998;2022-12-18T12:54:26;45.08;40.62;55.24;;
38366;Laerm;943;51.568;6.998;2022-12-18T13:00:17;45.05;40.15;61.53;;
38366;Laerm;943;51.568;6.998;2022-12-18T13:06:02;44.23;39.90;60.56;;
38366;Laerm;943;51.568;6.998;2022-12-18T13:09:00;45.62;40.14;71.48;;
38366;Laerm;943;51.568;6.998;2022-12-18T13:11:48;43.69;39.42;54.64;;
38366;Laerm;943;51.568;6.998;2022-12-18T13:14:40;43.84;39.59;64.38;;
38366;Laerm;943;51.568;6.998;2022-12-18T13:20:10;45.50;40.50;61.30;;
38366;Laerm;943;51.568;6.998;2022-12-18T13:22:49;43.51;39.52;52.43;;
38366;Laerm;943;51.568;6.998;2022-12-18T13:25:44;47.31;41.10;76.06;;
38366;Laerm;943;51.568;6.998;2022-12-18T13:28:15;43.52;40.02;49.76;;
38366;Laerm;943;51.568;6.998;2022-12-18T13:30:56;46.89;42.15;54.12;;
38366;Laerm;943;51.568;6.998;2022-12-18T13:33:46;50.78;46.81;61.58;;
38366;Laerm;943;51.568;6.998;2022-12-18T13:36:34;49.44;46.39;61.33;;
38366;Laerm;943;51.568;6.998;2022-12-18T13:45:41;45.98;41.42;69.36;;
38366;Laerm;943;51.568;6.998;2022-12-18T13:48:24;44.51;40.65;53.09;;
38366;Laerm;943;51.568;6.998;2022-12-18T13:51:11;46.20;41.87;59.27;;
38366;Laerm;943;51.568;6.998;2022-12-18T13:56:52;46.27;42.19;58.51;;
38366;Laerm;943;51.568;6.998;2022-12-18T13:59:37;46.94;40.86;56.43;;
38366;Laerm;943;51.568;6.998;2022-12-18T14:02:18;44.59;41.14;59.22;;
38366;Laerm;943;51.568;6.998;2022-12-18T14:04:50;44.84;41.42;49.71;;
38366;Laerm;943;51.568;6.998;2022-12-18T14:07:29;43.75;40.71;51.08;;
38366;Laerm;943;51.568;6.998;2022-12-18T14:10:16;47.29;41.11;73.83;;
38366;Laerm;943;51.568;6.998;2022-12-18T14:13:10;45.45;40.69;57.80;;
38366;Laerm;943;51.568;6.998;2022-12-18T14:15:47;44.27;41.08;49.17;;
38366;Laerm;943;51.568;6.998;2022-12-18T14:21:30;44.31;40.71;52.42;;
38366;Laerm;943;51.568;6.998;2022-12-18T14:24:15;48.59;39.58;67.88;;
38366;Laerm;943;51.568;6.998;2022-12-18T14:26:49;44.67;41.16;57.99;;
38366;Laerm;943;51.568;6.998;2022-12-18T14:29:31;45.99;39.81;62.25;;
38366;Laerm;943;51.568;6.998;2022-12-18T14:32:18;46.44;39.89;63.69;;
38366;Laerm;943;51.568;6.998;2022-12-18T14:34:53;49.77;40.14;62.92;;
38366;Laerm;943;51.568;6.998;2022-12-18T14:37:27;47.38;40.85;61.92;;
38366;Laerm;943;51.568;6.998;2022-12-18T14:40:03;46.11;40.64;67.63;;
38366;Laerm;943;51.568;6.998;2022-12-18T14:42:37;44.77;40.19;56.46;;
38366;Laerm;943;51.568;6.998;2022-12-18T14:45:37;43.36;40.40;47.36;;
38366;Laerm;943;51.568;6.998;2022-12-18T14:48:39;43.49;39.57;49.10;;
38366;Laerm;943;51.568;6.998;2022-12-18T14:51:29;44.17;40.02;54.59;;
38366;Laerm;943;51.568;6.998;2022-12-18T14:54:05;43.81;39.62;61.23;;
38366;Laerm;943;51.568;6.998;2022-12-18T14:56:47;48.95;39.50;62.73;;
38366;Laerm;943;51.568;6.998;2022-12-18T14:59:26;44.03;39.81;55.55;;
38366;Laerm;943;51.568;6.998;2022-12-18T15:04:47;49.85;39.11;68.10;;
38366;Laerm;943;51.568;6.998;2022-12-18T15:07:23;44.22;39.23;60.49;;
38366;Laerm;943;51.568;6.998;2022-12-18T15:10:14;45.70;38.56;68.92;;
38366;Laerm;943;51.568;6.998;2022-12-18T15:13:21;42.83;38.35;59.74;;
38366;Laerm;943;51.568;6.998;2022-12-18T15:15:53;44.19;37.60;58.64;;
38366;Laerm;943;51.568;6.998;2022-12-18T15:18:35;45.01;39.77;56.71;;
38366;Laerm;943;51.568;6.998;2022-12-18T15:21:20;43.92;38.28;57.92;;
38366;Laerm;943;51.568;6.998;2022-12-18T15:23:52;43.15;38.98;53.02;;
38366;Laerm;943;51.568;6.998;2022-12-18T15:26:22;42.44;38.38;61.49;;
38366;Laerm;943;51.568;6.998;2022-12-18T15:28:56;41.48;37.75;53.57;;
38366;Laerm;943;51.568;6.998;2022-12-18T15:31:34;41.97;38.14;51.29;;
38366;Laerm;943;51.568;6.998;2022-12-18T15:34:16;43.83;38.18;58.64;;
38366;Laerm;943;51.568;6.998;2022-12-18T15:36:47;41.10;37.72;51.05;;
38366;Laerm;943;51.568;6.998;2022-12-18T15:39:15;46.95;38.10;63.59;;
38366;Laerm;943;51.568;6.998;2022-12-18T15:41:43;45.31;38.66;63.29;;
38366;Laerm;943;51.568;6.998;2022-12-18T15:44:31;48.76;39.11;70.89;;
38366;Laerm;943;51.568;6.998;2022-12-18T15:46:59;47.21;38.79;66.18;;
38366;Laerm;943;51.568;6.998;2022-12-18T15:49:27;42.94;37.08;61.10;;
38366;Laerm;943;51.568;6.998;2022-12-18T15:52:00;46.03;39.30;64.95;;
38366;Laerm;943;51.568;6.998;2022-12-18T15:54:29;42.43;38.44;61.36;;
38366;Laerm;943;51.568;6.998;2022-12-18T15:57:15;43.51;38.50;63.38;;
38366;Laerm;943;51.568;6.998;2022-12-18T15:59:56;46.88;39.29;68.83;;
38366;Laerm;943;51.568;6.998;2022-12-18T16:02:26;43.01;38.47;58.50;;
38366;Laerm;943;51.568;6.998;2022-12-18T16:04:57;43.60;38.48;65.68;;
38366;Laerm;943;51.568;6.998;2022-12-18T16:07:24;43.84;39.16;56.21;;
38366;Laerm;943;51.568;6.998;2022-12-18T16:09:56;42.01;37.86;56.84;;
38366;Laerm;943;51.568;6.998;2022-12-18T16:12:28;42.61;39.11;48.68;;
38366;Laerm;943;51.568;6.998;2022-12-18T16:14:56;47.33;39.30;64.09;;
38366;Laerm;943;51.568;6.998;2022-12-18T16:17:23;42.17;38.51;47.20;;
38366;Laerm;943;51.568;6.998;2022-12-18T16:19:51;42.48;38.32;58.75;;
38366;Laerm;943;51.568;6.998;2022-12-18T16:22:26;50.92;37.99;67.48;;
38366;Laerm;943;51.568;6.998;2022-12-18T16:24:56;46.11;38.76;67.23;;
38366;Laerm;943;51.568;6.998;2022-12-18T16:27:25;45.83;39.39;52.27;;
38366;Laerm;943;51.568;6.998;2022-12-18T16:29:53;42.16;37.77;52.51;;